Time;durP1;ratioP1;P1;durP2;ratioP2;P2;SDS_P1;SDS_P2;PMS_P1;PMS_P2;Temp;Humidity;BMP_temperature;BMP_pressure;BME280_temperature;BME280_humidity;BME280_pressure;Samples;Min_cycle;Max_cycle;Signal;HPM_P1;HPM_P2
2023/10/24 00:01:49;;;;;;;17.08;3.50;;;;;;;14.90;100.00;94358.28;4875053;29;20116;-84
2023/10/24 00:04:14;;;;;;;33.97;4.40;;;;;;;14.90;100.00;94345.88;4874570;29;20058;-85
2023/10/24 00:06:40;;;;;;;16.70;3.35;;;;;;;14.96;100.00;94343.91;4883296;29;20040;-84
2023/10/24 00:09:05;;;;;;;25.27;4.38;;;;;;;14.75;100.00;94341.66;4916704;29;20038;-84
2023/10/24 00:11:49;;;;;;;22.08;4.28;;;;;;;14.79;100.00;94345.31;4885271;29;20055;-85
2023/10/24 00:14:15;;;;;;;19.25;3.63;;;;;;;14.84;100.00;94350.47;4899752;29;20088;-85
2023/10/24 00:16:59;;;;;;;27.42;4.40;;;;;;;14.94;100.00;94352.13;4884402;29;20044;-85
2023/10/24 00:19:24;;;;;;;24.80;4.47;;;;;;;14.74;100.00;94336.72;4902103;29;20116;-85
2023/10/24 00:21:49;;;;;;;28.42;4.90;;;;;;;14.64;100.00;94351.63;4885136;29;20032;-85
2023/10/24 00:24:34;;;;;;;17.08;4.00;;;;;;;14.84;100.00;94347.03;4868598;29;20033;-84
2023/10/24 00:26:59;;;;;;;29.95;5.05;;;;;;;14.83;100.00;94356.03;4851360;29;20025;-85
2023/10/24 00:29:24;;;;;;;34.63;5.32;;;;;;;14.76;100.00;94356.41;4883215;29;20055;-85
2023/10/24 00:31:50;;;;;;;30.40;4.47;;;;;;;14.77;100.00;94349.31;4866446;29;20092;-85
2023/10/24 00:34:16;;;;;;;19.83;4.10;;;;;;;14.84;100.00;94361.03;4866469;29;20510;-85
2023/10/24 00:36:43;;;;;;;31.85;4.13;;;;;;;14.92;100.00;94350.84;4866679;29;20029;-85
2023/10/24 00:39:08;;;;;;;34.33;4.53;;;;;;;14.62;100.00;94345.06;4866625;29;20119;-85
2023/10/24 00:41:34;;;;;;;17.48;3.75;;;;;;;14.74;100.00;94350.66;4866685;29;20041;-85
2023/10/24 00:43:59;;;;;;;15.27;3.85;;;;;;;14.95;100.00;94347.63;4866428;29;20033;-85
2023/10/24 00:46:26;;;;;;;18.80;3.67;;;;;;;14.93;100.00;94347.91;4866884;29;20033;-85
2023/10/24 00:48:52;;;;;;;19.35;3.95;;;;;;;14.88;100.00;94336.69;4866255;29;20037;-85
2023/10/24 00:51:36;;;;;;;19.17;4.07;;;;;;;14.70;100.00;94342.53;4866259;29;20033;-85
2023/10/24 00:54:02;;;;;;;24.17;4.35;;;;;;;14.82;100.00;94328.88;4882869;29;20091;-85
2023/10/24 00:56:29;;;;;;;16.92;3.83;;;;;;;14.82;100.00;94334.16;4866241;29;20041;-85
2023/10/24 00:58:56;;;;;;;12.88;3.63;;;;;;;14.87;100.00;94320.09;4866150;29;20033;-85
2023/10/24 01:01:22;;;;;;;16.95;4.15;;;;;;;14.89;100.00;94307.38;4850871;29;20093;-85
2023/10/24 01:03:48;;;;;;;17.92;4.07;;;;;;;14.90;100.00;94289.69;4866221;29;20048;-85
2023/10/24 01:06:15;;;;;;;18.02;4.18;;;;;;;14.70;100.00;94303.00;4866231;29;20104;-85
2023/10/24 01:08:41;;;;;;;19.85;5.13;;;;;;;14.83;100.00;94288.25;4851440;29;20053;-85
2023/10/24 01:11:06;;;;;;;22.23;5.20;;;;;;;14.71;100.00;94280.03;4869874;29;20127;-85
2023/10/24 01:13:32;;;;;;;68.30;4.50;;;;;;;14.76;100.00;94277.31;4870007;29;20043;-85
2023/10/24 01:15:57;;;;;;;21.85;4.70;;;;;;;14.69;100.00;94282.19;4870104;29;20033;-85
2023/10/24 01:18:23;;;;;;;15.32;4.90;;;;;;;14.68;100.00;94285.91;4886758;29;20448;-85
2023/10/24 01:20:49;;;;;;;20.55;5.15;;;;;;;14.69;100.00;94274.28;4869843;29;20084;-85
2023/10/24 01:23:14;;;;;;;23.33;5.53;;;;;;;14.63;100.00;94291.25;4854570;29;20040;-85
2023/10/24 01:25:41;;;;;;;32.55;14.85;;;;;;;14.37;100.00;94274.09;4854507;29;20040;-85
2023/10/24 01:28:07;;;;;;;18.63;9.05;;;;;;;14.34;100.00;94258.88;4869638;29;20101;-85
2023/10/24 01:33:18;;;;;;;47.88;15.93;;;;;;;13.88;100.00;94280.78;4872465;29;20097;-85
2023/10/24 01:36:02;;;;;;;35.05;15.27;;;;;;;13.98;100.00;94265.59;4886169;29;20068;-85
2023/10/24 01:38:27;;;;;;;31.75;14.50;;;;;;;14.06;100.00;94255.44;4886254;29;20072;-85
2023/10/24 01:40:53;;;;;;;41.17;15.30;;;;;;;14.08;100.00;94254.06;4853963;29;20041;-85
2023/10/24 01:43:37;;;;;;;39.28;15.25;;;;;;;14.02;100.00;94260.53;4886089;29;20037;-85
2023/10/24 01:46:02;;;;;;;34.40;12.02;;;;;;;14.04;100.00;94237.31;4869590;29;20071;-85
2023/10/24 01:48:27;;;;;;;31.23;10.10;;;;;;;14.03;100.00;94251.53;4869495;29;20108;-85
2023/10/24 01:50:53;;;;;;;54.40;16.90;;;;;;;13.58;100.00;94249.41;4885819;29;20033;-85
2023/10/24 01:56:02;;;;;;;39.35;18.35;;;;;;;13.49;100.00;94257.19;4904575;29;20050;-85
2023/10/24 01:58:28;;;;;;;43.28;17.98;;;;;;;13.61;100.00;94250.69;4904737;29;20362;-85
2023/10/24 02:00:53;;;;;;;37.13;18.15;;;;;;;13.50;100.00;94250.84;4886762;29;20048;-85
2023/10/24 02:03:18;;;;;;;38.55;17.75;;;;;;;13.37;100.00;94247.09;4872975;29;20102;-85
2023/10/24 02:06:03;;;;;;;58.50;20.30;;;;;;;13.19;100.00;94245.25;4909256;29;20043;-86
2023/10/24 02:08:28;;;;;;;44.55;19.95;;;;;;;13.53;100.00;94233.72;4884981;29;20066;-85
2023/10/24 02:10:53;;;;;;;47.90;19.38;;;;;;;13.67;100.00;94225.81;4885423;29;20041;-85
2023/10/24 02:13:19;;;;;;;44.10;20.65;;;;;;;13.38;100.00;94216.28;4885581;29;20033;-85
2023/10/24 02:15:44;;;;;;;55.70;21.48;;;;;;;13.16;100.00;94207.16;4868951;29;20029;-85
2023/10/24 02:18:10;;;;;;;58.15;22.52;;;;;;;13.05;100.00;94203.88;4868808;29;20064;-85
2023/10/24 02:20:37;;;;;;;47.95;20.83;;;;;;;13.30;100.00;94212.44;4868564;29;20176;-85
2023/10/24 02:23:02;;;;;;;62.20;23.75;;;;;;;13.11;100.00;94207.22;4868682;29;20035;-85
2023/10/24 02:25:46;;;;;;;43.20;21.15;;;;;;;13.24;100.00;94203.84;4868774;29;20447;-85
2023/10/24 02:28:12;;;;;;;47.97;23.02;;;;;;;13.39;100.00;94194.94;4885305;29;20123;-85
2023/10/24 02:30:38;;;;;;;44.75;21.48;;;;;;;13.49;100.00;94185.34;4868652;29;20051;-85
2023/10/24 02:33:03;;;;;;;40.90;19.45;;;;;;;13.52;100.00;94185.53;4868627;29;20435;-85
2023/10/24 02:35:47;;;;;;;35.67;19.13;;;;;;;13.64;100.00;94169.28;4868609;29;20037;-85
2023/10/24 02:38:13;;;;;;;40.28;18.33;;;;;;;13.76;100.00;94162.75;4885171;29;20084;-85
2023/10/24 02:40:57;;;;;;;43.28;17.70;;;;;;;13.79;100.00;94162.19;4885027;29;20029;-85
2023/10/24 02:43:22;;;;;;;199.48;27.13;;;;;;;13.21;100.00;94153.69;4885050;29;20053;-85
2023/10/24 02:45:47;;;;;;;45.25;18.02;;;;;;;13.44;100.00;94165.16;4885295;29;20502;-85
2023/10/24 02:48:32;;;;;;;67.43;21.20;;;;;;;13.06;100.00;94144.97;4868251;29;20127;-85
2023/10/24 02:50:58;;;;;;;48.13;18.98;;;;;;;13.22;100.00;94155.25;4884562;29;20525;-85
2023/10/24 02:53:24;;;;;;;66.88;23.27;;;;;;;12.99;100.00;94153.25;4868202;29;20071;-86
2023/10/24 02:55:53;;;;;;;53.03;23.23;;;;;;;12.95;100.00;94148.84;4868222;29;20032;-85
2023/10/24 02:58:19;;;;;;;49.67;21.67;;;;;;;12.93;100.00;94143.84;4884586;29;20463;-85
2023/10/24 03:01:06;;;;;;;50.78;19.13;;;;;;;13.23;100.00;94149.69;4868019;29;20065;-85
2023/10/24 03:03:32;;;;;;;52.22;20.92;;;;;;;13.24;100.00;94145.97;4849969;29;20111;-85
2023/10/24 03:06:16;;;;;;;203.20;23.77;;;;;;;13.35;100.00;94130.81;4864951;29;20092;-85
2023/10/24 03:08:42;;;;;;;481.27;34.05;;;;;;;13.14;100.00;94120.63;4879502;29;20037;-85
2023/10/24 03:11:26;;;;;;;39.47;19.50;;;;;;;13.34;100.00;94126.63;4852618;29;20060;-85
2023/10/24 03:13:52;;;;;;;33.95;17.10;;;;;;;13.49;100.00;94116.94;4878257;29;20028;-85
2023/10/24 03:16:18;;;;;;;29.27;17.17;;;;;;;13.54;100.00;94114.19;4867883;29;20132;-85
2023/10/24 03:18:43;;;;;;;36.78;15.82;;;;;;;13.62;100.00;94105.59;4884306;29;20116;-85
2023/10/24 03:21:09;;;;;;;40.45;16.27;;;;;;;13.36;100.00;94100.81;4898930;29;20036;-86
2023/10/24 03:23:53;;;;;;;36.13;16.55;;;;;;;13.46;100.00;94106.97;4867615;29;20408;-85
2023/10/24 03:29:03;;;;;;;28.88;16.00;;;;;;;13.19;100.00;94100.56;4851590;29;20125;-85
2023/10/24 03:31:30;;;;;;;51.47;19.48;;;;;;;13.31;100.00;94087.72;4864895;29;20400;-85
2023/10/24 03:33:56;;;;;;;57.63;21.42;;;;;;;13.12;100.00;94096.47;4879696;29;20098;-86
2023/10/24 03:36:21;;;;;;;46.65;19.17;;;;;;;13.39;100.00;94099.44;4883001;29;20029;-85
2023/10/24 03:38:47;;;;;;;61.80;22.55;;;;;;;13.23;100.00;94081.28;4898490;29;20021;-85
2023/10/24 03:41:12;;;;;;;35.03;16.25;;;;;;;13.23;100.00;94068.13;4898602;29;20043;-85
2023/10/24 03:43:39;;;;;;;48.67;20.38;;;;;;;13.29;100.00;94074.09;4883894;29;20033;-85
2023/10/24 03:46:07;;;;;;;40.72;17.60;;;;;;;13.20;100.00;94073.97;4898022;29;20085;-85
2023/10/24 03:48:33;;;;;;;55.55;19.67;;;;;;;13.24;100.00;94071.56;4898283;29;20037;-85
2023/10/24 03:51:00;;;;;;;56.92;19.27;;;;;;;13.16;100.00;94062.50;4897969;29;20021;-85
2023/10/24 03:56:47;;;;;;;58.17;22.00;;;;;;;13.18;100.00;94059.56;4882060;29;20052;-85
2023/10/24 03:59:12;;;;;;;67.43;22.48;;;;;;;13.28;100.00;94059.38;4883487;29;20031;-85
2023/10/24 04:01:38;;;;;;;61.88;21.63;;;;;;;13.23;100.00;94046.31;4866777;29;20033;-85
2023/10/24 04:04:04;;;;;;;50.97;20.25;;;;;;;13.25;100.00;94033.66;4883644;29;20033;-85
2023/10/24 04:06:29;;;;;;;58.75;20.58;;;;;;;13.22;100.00;94037.63;4851728;29;20453;-86
2023/10/24 04:09:04;;;;;;;74.18;19.55;;;;;;;13.18;100.00;94054.28;4883330;29;20108;-85
2023/10/24 04:14:15;;;;;;;39.25;18.30;;;;;;;13.24;100.00;94029.47;4871525;29;20040;-86
2023/10/24 04:16:40;;;;;;;279.48;27.17;;;;;;;13.19;100.00;94040.84;4871315;29;20091;-86
2023/10/24 04:19:06;;;;;;;44.72;18.50;;;;;;;13.38;100.00;94032.88;4886270;29;20430;-86
2023/10/24 04:21:50;;;;;;;70.63;21.58;;;;;;;13.41;100.00;94027.03;4902546;29;20038;-86
2023/10/24 04:24:15;;;;;;;48.67;18.90;;;;;;;13.38;100.00;94038.13;4903541;29;20027;-85
2023/10/24 04:29:24;;;;;;;69.50;18.90;;;;;;;13.68;100.00;94022.84;4870294;29;20040;-86
2023/10/24 04:31:50;;;;;;;53.28;15.90;;;;;;;13.83;100.00;94000.66;4883085;29;20029;-86
2023/10/24 04:34:16;;;;;;;69.82;17.27;;;;;;;13.80;100.00;94003.91;4866371;29;20047;-85
2023/10/24 04:36:41;;;;;;;61.25;15.13;;;;;;;13.98;100.00;93985.59;4896860;29;20081;-86
2023/10/24 04:39:07;;;;;;;59.28;11.80;;;;;;;14.21;100.00;93983.78;4897516;29;20021;-86
2023/10/24 04:44:16;;;;;;;47.22;11.02;;;;;;;14.37;100.00;93959.72;4883058;29;20484;-85
2023/10/24 04:49:25;;;;;;;44.88;11.60;;;;;;;14.22;100.00;93943.19;4883045;29;20048;-85
2023/10/24 04:51:53;;;;;;;41.20;10.23;;;;;;;14.34;100.00;93941.84;4883163;29;20032;-86
2023/10/24 04:54:18;;;;;;;52.33;10.77;;;;;;;14.25;100.00;93934.69;4897763;29;20044;-85
2023/10/24 04:56:44;;;;;;;55.42;10.95;;;;;;;14.03;100.00;93935.47;4897224;29;20362;-85
2023/10/24 04:59:09;;;;;;;34.10;9.65;;;;;;;14.08;100.00;93932.69;4856236;29;20034;-85
2023/10/24 05:01:53;;;;;;;47.05;10.23;;;;;;;14.06;100.00;93936.69;4878286;29;20045;-86
2023/10/24 05:04:19;;;;;;;39.05;10.50;;;;;;;14.00;100.00;93933.44;4878287;29;20040;-85
2023/10/24 05:06:44;;;;;;;55.47;11.27;;;;;;;13.94;100.00;93927.50;4878466;29;20128;-85
2023/10/24 05:09:11;;;;;;;58.22;13.27;;;;;;;13.99;100.00;93921.34;4878288;29;20038;-86
2023/10/24 05:11:39;;;;;;;48.75;13.50;;;;;;;13.95;100.00;93926.41;4862771;29;20090;-85
2023/10/24 05:14:05;;;;;;;47.17;12.60;;;;;;;14.03;100.00;93919.66;4862855;29;20037;-85
2023/10/24 05:16:31;;;;;;;47.55;12.38;;;;;;;14.10;100.00;93900.81;4878388;29;20034;-86
2023/10/24 05:18:56;;;;;;;46.38;12.40;;;;;;;14.10;100.00;93904.19;4878595;29;20033;-84
2023/10/24 05:21:22;;;;;;;49.75;13.07;;;;;;;14.17;100.00;93911.69;4863929;29;20040;-85
2023/10/24 05:24:06;;;;;;;48.25;12.50;;;;;;;14.27;100.00;93898.25;4882167;29;20032;-86
2023/10/24 05:26:31;;;;;;;43.47;12.43;;;;;;;14.17;100.00;93887.97;4897008;29;20029;-85
2023/10/24 05:28:57;;;;;;;47.38;11.57;;;;;;;14.40;100.00;93883.44;4890152;29;20037;-85
2023/10/24 05:31:22;;;;;;;43.03;11.38;;;;;;;14.58;100.00;93870.34;4884428;29;20033;-85
2023/10/24 05:34:07;;;;;;;73.18;12.23;;;;;;;14.28;100.00;93847.13;4900140;29;20124;-85
2023/10/24 05:36:32;;;;;;;53.08;12.25;;;;;;;14.11;100.00;93852.31;4901256;29;20028;-86
2023/10/24 05:39:16;;;;;;;48.58;11.13;;;;;;;14.19;100.00;93853.44;4901221;29;20112;-85
2023/10/24 05:42:00;;;;;;;53.67;11.18;;;;;;;14.22;100.00;93839.66;4884406;29;20036;-85
2023/10/24 05:44:26;;;;;;;49.92;11.40;;;;;;;14.31;100.00;93842.31;4901148;29;20111;-86
2023/10/24 05:46:52;;;;;;;39.42;10.65;;;;;;;14.36;100.00;93842.97;4884750;29;20361;-85
2023/10/24 05:49:17;;;;;;;51.78;10.10;;;;;;;14.44;100.00;93848.59;4869016;29;20096;-86
2023/10/24 05:52:02;;;;;;;40.28;8.95;;;;;;;14.63;100.00;93850.97;4884288;29;20032;-86
2023/10/24 05:57:30;;;;;;;37.60;8.75;;;;;;;14.55;100.00;93841.94;4890463;29;20048;-85
2023/10/24 05:59:55;;;;;;;34.05;8.50;;;;;;;14.61;100.00;93832.84;4919006;29;20044;-85
2023/10/24 06:02:40;;;;;;;43.40;8.40;;;;;;;14.55;100.00;93826.91;4919019;29;20181;-85
2023/10/24 06:05:06;;;;;;;35.63;8.40;;;;;;;14.53;100.00;93820.38;4872415;29;20105;-85
2023/10/24 06:07:31;;;;;;;35.78;7.75;;;;;;;14.66;100.00;93816.88;4903872;29;20040;-85
2023/10/24 06:09:57;;;;;;;36.58;8.30;;;;;;;14.47;100.00;93803.94;4887694;29;20028;-85
2023/10/24 06:12:41;;;;;;;39.78;7.13;;;;;;;14.53;100.00;93802.72;4887456;29;20350;-86
2023/10/24 06:15:25;;;;;;;37.35;7.88;;;;;;;14.75;100.00;93802.97;4919105;29;20357;-86
2023/10/24 06:17:50;;;;;;;44.05;8.05;;;;;;;14.50;100.00;93790.16;4904359;29;20032;-85
2023/10/24 06:23:20;;;;;;;45.78;7.82;;;;;;;14.55;100.00;93807.69;4904247;29;20063;-86
2023/10/24 06:26:04;;;;;;;29.23;6.95;;;;;;;14.74;100.00;93830.41;4904142;29;20115;-86
2023/10/24 06:28:49;;;;;;;27.83;6.43;;;;;;;14.88;100.00;93822.38;4887573;29;20075;-86
2023/10/24 06:31:14;;;;;;;30.17;6.30;;;;;;;14.78;100.00;93823.44;4871846;29;20047;-86
2023/10/24 06:33:40;;;;;;;23.08;5.70;;;;;;;14.89;100.00;93816.81;4887175;29;20024;-86
2023/10/24 06:36:06;;;;;;;21.83;5.22;;;;;;;14.85;100.00;93810.59;4887344;29;20522;-86
2023/10/24 06:38:31;;;;;;;32.47;6.60;;;;;;;14.84;100.00;93795.84;4887205;29;20089;-85
2023/10/24 06:41:16;;;;;;;27.60;5.85;;;;;;;15.02;100.00;93798.50;4871767;29;20032;-86
2023/10/24 06:43:41;;;;;;;27.90;5.82;;;;;;;15.22;100.00;93797.91;4903900;29;20052;-86
2023/10/24 06:46:07;;;;;;;40.80;5.53;;;;;;;15.40;100.00;93785.47;4903786;29;20111;-85
2023/10/24 06:48:32;;;;;;;43.80;5.45;;;;;;;15.54;100.00;93771.34;4886849;29;20040;-86
2023/10/24 06:53:42;;;;;;;42.95;5.07;;;;;;;15.58;100.00;93769.63;4889483;29;20487;-86
2023/10/24 06:56:07;;;;;;;40.47;5.60;;;;;;;15.45;100.00;93781.91;4887159;29;20115;-86
2023/10/24 06:58:33;;;;;;;45.22;5.78;;;;;;;15.46;100.00;93769.47;4886690;29;20465;-86
2023/10/24 07:00:58;;;;;;;45.42;4.88;;;;;;;15.46;100.00;93753.63;4886713;29;20024;-86
2023/10/24 07:06:46;;;;;;;34.65;5.10;;;;;;;15.88;100.00;93758.38;4902436;29;20027;-86
2023/10/24 07:09:12;;;;;;;36.30;5.35;;;;;;;16.10;100.00;93747.59;4871346;29;20047;-85
2023/10/24 07:11:38;;;;;;;32.97;4.68;;;;;;;16.03;100.00;93754.47;4886441;29;20028;-86
2023/10/24 07:14:03;;;;;;;40.05;5.25;;;;;;;15.87;100.00;93747.03;4886553;29;20338;-85
2023/10/24 07:16:49;;;;;;;34.95;4.82;;;;;;;15.92;100.00;93744.25;4886439;29;20029;-85
2023/10/24 07:21:58;;;;;;;44.47;5.18;;;;;;;15.78;100.00;93733.06;4903078;29;20087;-86
2023/10/24 07:24:23;;;;;;;38.55;4.90;;;;;;;15.81;100.00;93745.66;4886311;29;20111;-85
2023/10/24 07:26:49;;;;;;;41.45;5.47;;;;;;;15.99;100.00;93742.97;4886241;29;20037;-85
2023/10/24 07:29:28;;;;;;;30.60;4.85;;;;;;;15.91;100.00;93718.16;5114891;27;20391;-85
2023/10/24 07:32:12;;;;;;;33.03;5.03;;;;;;;16.08;100.00;93741.09;5115076;28;20024;-84
2023/10/24 07:37:23;;;;;;;43.20;5.05;;;;;;;16.24;100.00;93784.41;5114551;28;20023;-85
2023/10/24 07:39:48;;;;;;;34.58;5.35;;;;;;;16.15;100.00;93767.78;5113221;28;20111;-85
2023/10/24 07:42:13;;;;;;;40.53;5.93;;;;;;;16.14;100.00;93765.44;5113113;28;20065;-85
2023/10/24 07:44:39;;;;;;;46.13;6.00;;;;;;;15.62;100.00;93769.78;5113182;28;20023;-85
2023/10/24 07:47:04;;;;;;;40.10;4.80;;;;;;;15.71;100.00;93767.13;5114240;28;20057;-85
2023/10/24 07:49:49;;;;;;;46.50;5.72;;;;;;;15.74;100.00;93777.81;5113090;28;20436;-85
2023/10/24 07:54:58;;;;;;;40.08;5.63;;;;;;;15.31;100.00;93776.78;5114215;28;20081;-85
2023/10/24 07:57:24;;;;;;;38.40;6.20;;;;;;;15.43;100.00;93776.16;5113204;28;20031;-85
2023/10/24 07:59:49;;;;;;;33.55;6.18;;;;;;;15.47;100.00;93776.31;5112898;28;20031;-85
2023/10/24 08:02:15;;;;;;;47.47;7.20;;;;;;;15.38;100.00;93763.91;5112848;28;20028;-85
2023/10/24 08:04:59;;;;;;;44.95;5.70;;;;;;;15.53;100.00;93751.31;5096080;28;20340;-85
2023/10/24 08:07:24;;;;;;;54.80;6.28;;;;;;;15.53;100.00;93746.03;5112857;28;20115;-85
2023/10/24 08:09:50;;;;;;;32.85;5.35;;;;;;;15.60;100.00;93742.91;5112596;28;20081;-85
2023/10/24 08:12:15;;;;;;;28.38;5.47;;;;;;;15.77;100.00;93723.59;5112776;28;20028;-85
2023/10/24 08:14:40;;;;;;;40.13;5.72;;;;;;;16.14;100.00;93729.25;5113721;28;20340;-85
2023/10/24 08:17:06;;;;;;;29.60;3.75;;;;;;;16.53;100.00;93745.84;5112573;28;20337;-85
2023/10/24 08:20:12;;;;;;;19.05;2.95;;;;;;;16.47;100.00;93725.97;5112561;28;20028;-85
2023/10/24 08:25:21;;;;;;;;;;;;;;;16.87;100.00;93724.78;5113092;28;20035;-85
2023/10/24 08:27:47;;;;;;;17.70;2.13;;;;;;;17.01;100.00;93724.53;5112176;28;19912;-85
2023/10/24 08:30:12;;;;;;;19.80;2.08;;;;;;;17.33;100.00;93701.06;5112574;28;20727;-85
2023/10/24 08:32:56;;;;;;;15.02;2.70;;;;;;;17.43;100.00;93694.59;5112214;28;20031;-85
2023/10/24 08:35:22;;;;;;;17.80;2.50;;;;;;;17.30;100.00;93693.78;5113431;28;20027;-85
2023/10/24 08:38:06;;;;;;;15.65;2.22;;;;;;;17.22;100.00;93689.34;5112399;28;20031;-85
2023/10/24 08:40:50;;;;;;;18.60;2.67;;;;;;;16.84;100.00;93692.91;5100198;28;20471;-85
2023/10/24 08:43:20;;;;;;;16.98;2.80;;;;;;;16.78;100.00;93694.97;5098509;28;20420;-85
2023/10/24 08:45:46;;;;;;;24.88;3.40;;;;;;;16.59;100.00;93695.41;5099082;28;20020;-85
2023/10/24 08:48:12;;;;;;;23.55;3.35;;;;;;;16.75;100.00;93695.63;5099525;28;20073;-85
2023/10/24 08:50:38;;;;;;;31.38;3.70;;;;;;;16.37;100.00;93697.28;5098289;28;20031;-84
2023/10/24 08:53:04;;;;;;;23.27;3.35;;;;;;;16.33;100.00;93691.84;5098367;28;20333;-84
2023/10/24 08:55:29;;;;;;;24.38;3.75;;;;;;;16.10;100.00;93684.19;5099740;28;20028;-85
2023/10/24 08:57:57;;;;;;;19.08;3.03;;;;;;;16.08;100.00;93672.41;5098399;28;20457;-85
2023/10/24 09:00:23;;;;;;;22.40;3.50;;;;;;;16.05;100.00;93680.94;5098191;28;20031;-85
2023/10/24 09:02:48;;;;;;;33.35;4.10;;;;;;;16.20;100.00;93672.47;5099177;28;20421;-85
2023/10/24 09:05:14;;;;;;;43.78;4.07;;;;;;;16.16;100.00;93674.19;5098100;28;20024;-84
2023/10/24 09:07:59;;;;;;;33.20;4.05;;;;;;;16.42;100.00;93681.22;5099339;28;20032;-85
2023/10/24 09:10:24;;;;;;;28.85;4.03;;;;;;;15.88;100.00;93674.63;5099200;28;20043;-85
2023/10/24 09:16:09;;;;;;;33.83;4.60;;;;;;;15.80;100.00;93693.94;5099101;28;20023;-85
2023/10/24 09:18:36;;;;;;;27.35;4.68;;;;;;;15.64;100.00;93704.22;5097950;28;20067;-84
2023/10/24 09:21:04;;;;;;;28.90;4.82;;;;;;;15.48;100.00;93706.56;5097687;28;20456;-84
2023/10/24 09:23:32;;;;;;;36.53;4.43;;;;;;;15.59;100.00;93689.31;5097994;28;20038;-85
2023/10/24 09:26:00;;;;;;;36.08;5.05;;;;;;;15.75;100.00;93712.56;5097674;28;20341;-85
2023/10/24 09:28:26;;;;;;;30.73;4.88;;;;;;;15.58;100.00;93713.41;5098688;28;20024;-85
2023/10/24 09:30:51;;;;;;;35.80;5.25;;;;;;;15.52;100.00;93699.59;5097460;28;20025;-84
2023/10/24 09:33:16;;;;;;;33.67;5.28;;;;;;;15.56;100.00;93692.59;5099000;28;20036;-85
2023/10/24 09:35:42;;;;;;;42.70;5.45;;;;;;;15.48;100.00;93696.00;5081122;28;20440;-84
2023/10/24 09:38:08;;;;;;;158.80;7.53;;;;;;;15.54;100.00;93703.47;5097441;28;20028;-86
2023/10/24 09:40:39;;;;;;;38.75;6.07;;;;;;;15.49;100.00;93706.28;5097346;28;20034;-85
2023/10/24 09:43:11;;;;;;;36.35;5.15;;;;;;;15.41;100.00;93712.34;5097329;28;20032;-85
2023/10/24 09:45:41;;;;;;;35.17;5.30;;;;;;;15.11;100.00;93706.94;5097579;28;20334;-85
2023/10/24 09:48:07;;;;;;;30.90;5.90;;;;;;;15.02;100.00;93706.94;5080565;28;20047;-85
2023/10/24 09:50:33;;;;;;;46.45;6.55;;;;;;;14.98;100.00;93680.41;5096701;28;20499;-85
2023/10/24 09:52:58;;;;;;;46.15;6.60;;;;;;;15.20;100.00;93704.28;5097076;28;20044;-85
2023/10/24 09:55:24;;;;;;;32.42;5.32;;;;;;;15.29;100.00;93696.38;5097304;28;20400;-86
2023/10/24 09:58:09;;;;;;;27.13;5.78;;;;;;;15.45;100.00;93710.63;5096966;28;20027;-85
2023/10/24 10:00:35;;;;;;;33.13;4.55;;;;;;;15.58;100.00;93723.97;5097164;28;20055;-85
2023/10/24 10:03:00;;;;;;;28.35;4.95;;;;;;;15.58;100.00;93751.13;5096872;28;20067;-86
2023/10/24 10:05:48;;;;;;;37.42;3.83;;;;;;;15.78;100.00;93747.06;5097527;28;20031;-85
2023/10/24 10:08:33;;;;;;;29.10;3.75;;;;;;;15.52;100.00;93712.81;5097981;28;20031;-85
2023/10/24 10:14:13;;;;;;;22.05;4.32;;;;;;;15.75;100.00;93742.41;5096931;28;20077;-85
2023/10/24 10:20:04;;;;;;;33.35;8.93;;;;;;;15.55;100.00;93771.00;5096879;28;20218;-85
2023/10/24 10:22:41;;;;;;;38.65;9.68;;;;;;;15.41;100.00;93784.38;5096498;28;20031;-85
2023/10/24 10:25:38;;;;;;;44.03;9.50;;;;;;;15.53;100.00;93761.88;5098057;28;20073;-85
2023/10/24 10:31:28;;;;;;;35.42;10.80;;;;;;;15.21;100.00;93735.66;5097536;28;20042;-85
2023/10/24 10:34:12;;;;;;;35.95;10.80;;;;;;;14.98;100.00;93735.03;5097547;28;20072;-85
2023/10/24 10:36:39;;;;;;;29.92;9.88;;;;;;;14.93;100.00;93728.06;5096219;28;20040;-85
2023/10/24 10:39:09;;;;;;;21.23;9.70;;;;;;;15.09;100.00;93738.13;5096329;28;20020;-85
2023/10/24 10:41:35;;;;;;;23.15;9.50;;;;;;;14.90;100.00;93741.06;5096220;28;20066;-85
2023/10/24 10:44:02;;;;;;;22.38;9.13;;;;;;;15.07;100.00;93748.22;5096218;28;20425;-85
2023/10/24 10:46:29;;;;;;;18.45;8.90;;;;;;;15.38;100.00;93729.59;5096119;28;20110;-85
2023/10/24 10:49:03;;;;;;;20.73;8.80;;;;;;;15.40;100.00;93716.84;5096104;28;20032;-84
2023/10/24 10:51:33;;;;;;;19.10;7.72;;;;;;;15.42;100.00;93724.44;5095997;28;20039;-84
2023/10/24 10:54:24;;;;;;;27.10;9.07;;;;;;;15.09;100.00;93724.94;5096037;28;20361;-84
2023/10/24 10:56:50;;;;;;;19.10;7.95;;;;;;;15.06;100.00;93705.25;5096052;28;20051;-84
2023/10/24 10:59:31;;;;;;;64.07;11.10;;;;;;;14.94;100.00;93681.38;5095936;28;20101;-85
2023/10/24 11:02:05;;;;;;;20.77;7.68;;;;;;;15.30;100.00;93690.03;5096819;28;20028;-85
2023/10/24 11:07:14;;;;;;;20.17;7.00;;;;;;;15.48;100.00;93683.59;5095969;28;20085;-85
2023/10/24 11:10:06;;;;;;;27.13;7.63;;;;;;;15.69;100.00;93686.34;5095818;28;20494;-85
2023/10/24 11:12:31;;;;;;;19.67;7.78;;;;;;;15.46;100.00;93674.44;5095892;28;20085;-85
2023/10/24 11:15:16;;;;;;;21.75;8.55;;;;;;;15.64;100.00;93651.41;5078792;28;20073;-85
2023/10/24 11:17:43;;;;;;;25.08;9.25;;;;;;;15.48;100.00;93630.03;5096968;28;20024;-85
2023/10/24 11:20:27;;;;;;;30.85;9.10;;;;;;;15.79;100.00;93624.47;5095626;28;20044;-84
2023/10/24 11:22:53;;;;;;;21.35;6.70;;;;;;;16.50;100.00;93629.38;5097070;28;20050;-84
2023/10/24 11:25:19;;;;;;;18.45;6.90;;;;;;;16.75;100.00;93624.22;5096748;28;20027;-85
2023/10/24 11:27:46;;;;;;;17.73;6.28;;;;;;;17.25;100.00;93606.66;5095457;28;20024;-84
2023/10/24 11:30:12;;;;;;;24.30;6.25;;;;;;;16.77;100.00;93582.31;5095598;28;20028;-84
2023/10/24 11:32:37;;;;;;;21.80;6.38;;;;;;;17.11;100.00;93567.22;5095430;28;20123;-84
2023/10/24 11:35:22;;;;;;;21.63;7.20;;;;;;;16.82;100.00;93545.88;5095556;28;20032;-84
2023/10/24 11:37:47;;;;;;;19.83;6.70;;;;;;;17.19;100.00;93563.72;5096684;28;20049;-84
2023/10/24 11:40:16;;;;;;;23.75;5.60;;;;;;;17.91;100.00;93522.00;5095544;28;20115;-84
2023/10/24 11:42:41;;;;;;;18.75;6.10;;;;;;;17.84;100.00;93497.94;5096606;28;20036;-84
2023/10/24 11:45:07;;;;;;;28.20;6.95;;;;;;;17.17;100.00;93520.16;5092325;28;20032;-84
2023/10/24 11:47:32;;;;;;;23.92;6.35;;;;;;;17.67;100.00;93505.03;5075059;28;20115;-85
2023/10/24 11:50:04;;;;;;;30.23;5.07;;;;;;;17.87;100.00;93521.16;5075217;28;20093;-84
2023/10/24 11:52:30;;;;;;;17.20;4.80;;;;;;;17.88;100.00;93531.38;5075093;28;20035;-84
2023/10/24 11:54:55;;;;;;;193.55;11.07;;;;;;;17.74;100.00;93513.22;5058599;28;20028;-84
2023/10/24 11:57:40;;;;;;;54.42;6.78;;;;;;;18.23;100.00;93511.56;5080935;28;20028;-85
2023/10/24 12:00:32;;;;;;;222.63;13.00;;;;;;;17.40;100.00;93517.09;5096161;28;20032;-85
2023/10/24 12:03:07;;;;;;;155.75;11.13;;;;;;;17.92;100.00;93502.34;5094902;28;20028;-86
2023/10/24 12:05:33;;;;;;;23.23;6.55;;;;;;;17.26;100.00;93506.81;5096827;28;20027;-85
2023/10/24 12:07:59;;;;;;;19.58;8.05;;;;;;;17.21;100.00;93523.69;5095777;28;20031;-85
2023/10/24 12:10:29;;;;;;;14.95;7.45;;;;;;;17.61;100.00;93533.63;5071736;28;20066;-86
2023/10/24 12:13:00;;;;;;;23.73;7.32;;;;;;;17.09;100.00;93527.88;5058849;28;20032;-85
2023/10/24 12:15:44;;;;;;;25.88;7.43;;;;;;;17.60;100.00;93491.59;5077613;28;20357;-85
2023/10/24 12:18:10;;;;;;;25.95;6.53;;;;;;;17.39;100.00;93505.72;5079810;28;20032;-85
2023/10/24 12:20:35;;;;;;;25.27;6.10;;;;;;;17.23;100.00;93500.31;5078638;28;20097;-85
2023/10/24 12:23:00;;;;;;;21.52;6.65;;;;;;;17.30;100.00;93505.06;5078394;28;20028;-86
2023/10/24 12:28:29;;;;;;;27.33;6.40;;;;;;;17.38;100.00;93518.19;5078602;28;20411;-86
2023/10/24 12:31:13;;;;;;;14.60;5.88;;;;;;;18.07;100.00;93509.63;5079537;28;20041;-85